Time;durP1;ratioP1;P1;durP2;ratioP2;P2;SDS_P1;SDS_P2;PMS_P1;PMS_P2;Temp;Humidity;BMP_temperature;BMP_pressure;BME280_temperature;BME280_humidity;BME280_pressure;Samples;Min_cycle;Max_cycle;Signal;HPM_P1;HPM_P2
2021/12/17 00:04:50;;;;;;;;;;;3.50;99.90;;;;;;5015365;28;19909;-74
2021/12/17 00:07:16;;;;;;;;;;;3.80;99.90;;;;;;5014981;28;19905;-74
2021/12/17 00:09:43;;;;;;;;;;;3.80;99.90;;;;;;4981302;28;19941;-74
2021/12/17 00:12:11;;;;;;;;;;;3.80;99.90;;;;;;5019109;22;19922;-76
2021/12/17 00:14:38;;;;;;;;;;;3.70;99.90;;;;;;4977424;28;19964;-76
2021/12/17 00:17:06;;;;;;;;;;;3.70;99.90;;;;;;4978043;28;19929;-76
2021/12/17 00:49:24;;;;;;;;;;;3.90;99.90;;;;;;4994934;28;20357;-76
2021/12/17 00:51:58;;;;;;;;;;;3.90;99.90;;;;;;4977744;28;19952;-76
2021/12/17 00:54:31;;;;;;;;;;;4.00;99.90;;;;;;4995447;28;19909;-77
2021/12/17 00:56:58;;;;;;;;;;;4.00;99.90;;;;;;4977691;28;19909;-76
2021/12/17 00:59:24;;;;;;;;;;;3.90;99.90;;;;;;4977475;28;20388;-77
2021/12/17 01:01:50;;;;;;;;;;;3.60;99.90;;;;;;4961239;28;19905;-77
2021/12/17 01:04:16;;;;;;;;;;;3.50;99.90;;;;;;4977235;28;19905;-77
2021/12/17 01:06:42;;;;;;;;;;;3.60;99.90;;;;;;4977208;28;19905;-77
2021/12/17 01:09:08;;;;;;;;;;;3.60;99.90;;;;;;4994575;28;19910;-77
2021/12/17 01:11:35;;;;;;;;;;;3.80;99.90;;;;;;4994515;28;20270;-77
2021/12/17 01:14:01;;;;;;;;;;;3.90;99.90;;;;;;4994444;28;19991;-76
2021/12/17 01:16:27;;;;;;;;;;;3.90;99.90;;;;;;4994488;28;19953;-76
2021/12/17 01:42:48;;;;;;;;;;;3.90;99.90;;;;;;4993851;28;19964;-77
2021/12/17 01:45:14;;;;;;;;;;;3.80;99.90;;;;;;4976485;28;19996;-77
2021/12/17 01:47:39;;;;;;;;;;;3.80;99.90;;;;;;4993862;28;19933;-77
2021/12/17 01:56:03;;;;;;;;;;;3.60;99.90;;;;;;4993755;28;19905;-77
2021/12/17 02:01:14;;;;;;;;;;;3.90;99.90;;;;;;4976065;28;19993;-76
2021/12/17 02:03:39;;;;;;;;;;;3.80;99.90;;;;;;4976313;28;19905;-77
2021/12/17 02:06:06;;;;;;;;;;;3.90;99.90;;;;;;4993473;28;19913;-77
2021/12/17 02:08:32;;;;;;;;;;;3.80;99.90;;;;;;4993621;28;19960;-77
2021/12/17 02:19:44;;;;;;;;;;;3.90;99.90;;;;;;4993312;28;19906;-77
2021/12/17 02:32:44;;;;;;;;;;;3.80;99.90;;;;;;4975789;28;20336;-77
2021/12/17 02:37:37;;;;;;;;;;;3.90;99.90;;;;;;4975910;28;19906;-77
2021/12/17 02:45:32;;;;;;;;;;;3.80;99.90;;;;;;4993023;28;19909;-77
2021/12/17 02:45:36;;;;;;;;;;;3.70;99.90;;;;;;4992820;28;19996;-77
2021/12/17 02:48:05;;;;;;;;;;;3.60;99.90;;;;;;4975747;28;20004;-77
2021/12/17 02:50:31;;;;;;;;;;;3.60;99.90;;;;;;4992865;28;19910;-77
2021/12/17 02:52:57;;;;;;;;;;;3.60;99.90;;;;;;4992994;28;19913;-77
2021/12/17 02:55:23;;;;;;;;;;;3.70;99.90;;;;;;4993078;28;19905;-76
2021/12/17 02:57:49;;;;;;;;;;;3.70;99.90;;;;;;4993422;28;20337;-77
2021/12/17 03:00:16;;;;;;;;;;;3.70;99.90;;;;;;4993123;28;19957;-77
2021/12/17 03:02:43;;;;;;;;;;;3.80;99.90;;;;;;4975540;28;19971;-77
2021/12/17 03:05:10;;;;;;;;;;;3.80;99.90;;;;;;4975533;28;19906;-77
2021/12/17 03:07:39;;;;;;;;;;;3.80;99.90;;;;;;4992940;28;19913;-77
2021/12/17 03:10:08;;;;;;;;;;;3.70;99.90;;;;;;4975389;28;19917;-77
2021/12/17 03:12:42;;;;;;;;;;;3.90;99.90;;;;;;4975214;28;20368;-77
2021/12/17 03:15:20;;;;;;;;;;;4.00;99.90;;;;;;4992837;28;19913;-77
2021/12/17 03:18:25;;;;;;;;;;;4.00;99.90;;;;;;4975351;28;19906;-77
2021/12/17 03:23:40;;;;;;;;;;;4.00;99.90;;;;;;4992863;28;20009;-77
2021/12/17 03:26:13;;;;;;;;;;;3.90;99.90;;;;;;4992695;28;19914;-77
2021/12/17 03:28:39;;;;;;;;;;;4.10;99.90;;;;;;4975405;28;19905;-77
2021/12/17 03:31:05;;;;;;;;;;;4.10;99.90;;;;;;4992660;28;19917;-77
2021/12/17 03:33:31;;;;;;;;;;;3.90;99.90;;;;;;4975553;28;19912;-77
2021/12/17 03:36:00;;;;;;;;;;;3.90;99.90;;;;;;4975107;28;19910;-77
2021/12/17 03:38:26;;;;;;;;;;;4.00;99.90;;;;;;4959228;28;19906;-77
2021/12/17 03:41:03;;;;;;;;;;;4.00;99.90;;;;;;4992477;28;19976;-77
2021/12/17 03:43:31;;;;;;;;;;;4.00;99.90;;;;;;4975217;28;20281;-77
2021/12/17 03:45:57;;;;;;;;;;;3.80;99.90;;;;;;4975574;28;19909;-77
2021/12/17 03:48:23;;;;;;;;;;;3.80;99.90;;;;;;4978690;28;19913;-75
2021/12/17 03:50:48;;;;;;;;;;;3.60;99.90;;;;;;4995638;28;20361;-74
2021/12/17 03:53:14;;;;;;;;;;;3.50;99.90;;;;;;4996034;28;19952;-74
2021/12/17 03:55:40;;;;;;;;;;;3.60;99.90;;;;;;4978408;28;19968;-75
2021/12/17 03:58:05;;;;;;;;;;;3.60;99.90;;;;;;4978627;28;19933;-75
2021/12/17 04:00:31;;;;;;;;;;;3.70;99.90;;;;;;4978367;28;19992;-75
2021/12/17 04:02:57;;;;;;;;;;;3.60;99.90;;;;;;4995833;28;20340;-75
2021/12/17 04:05:23;;;;;;;;;;;3.60;99.90;;;;;;4995658;28;19906;-75
2021/12/17 04:07:49;;;;;;;;;;;3.40;99.90;;;;;;4995615;28;20486;-75
2021/12/17 04:10:17;;;;;;;;;;;3.30;99.90;;;;;;4995728;28;20060;-76
2021/12/17 04:12:53;;;;;;;;;;;3.30;99.90;;;;;;4995602;28;19913;-76
2021/12/17 04:15:29;;;;;;;;;;;3.30;99.90;;;;;;4995629;28;19906;-76
2021/12/17 04:17:57;;;;;;;;;;;3.30;99.90;;;;;;4995509;28;20316;-76
2021/12/17 04:20:23;;;;;;;;;;;3.40;99.90;;;;;;4961947;28;19906;-76
2021/12/17 04:22:48;;;;;;;;;;;3.60;99.90;;;;;;4995664;28;19912;-76
2021/12/17 04:25:14;;;;;;;;;;;3.60;99.90;;;;;;4978006;28;19949;-76
2021/12/17 04:27:39;;;;;;;;;;;3.70;99.90;;;;;;4961709;28;20353;-76
2021/12/17 04:30:05;;;;;;;;;;;3.70;99.90;;;;;;4977805;28;20000;-76
2021/12/17 04:32:31;;;;;;;;;;;3.40;99.90;;;;;;4978097;28;19910;-76
2021/12/17 04:34:56;;;;;;;;;;;3.20;99.90;;;;;;4977842;28;19914;-76
2021/12/17 04:37:22;;;;;;;;;;;3.10;99.90;;;;;;4994989;28;19905;-76
2021/12/17 04:39:48;;;;;;;;;;;3.10;99.90;;;;;;4977918;28;19988;-75
2021/12/17 04:42:45;;;;;;;;;;;3.10;99.90;;;;;;4977695;28;20008;-75
2021/12/17 04:45:00;;;;;;;;;;;3.00;99.90;;;;;;4994488;28;19952;-76
2021/12/17 04:58:23;;;;;;;;;;;2.70;99.90;;;;;;4993712;28;19917;-73
2021/12/17 05:00:48;;;;;;;;;;;2.60;99.90;;;;;;4977350;28;20304;-75
2021/12/17 05:03:14;;;;;;;;;;;2.50;99.90;;;;;;4977613;28;19906;-75
2021/12/17 05:05:40;;;;;;;;;;;2.30;99.90;;;;;;4977162;28;19912;-75
2021/12/17 05:08:11;;;;;;;;;;;2.30;99.90;;;;;;4977221;28;20317;-75
2021/12/17 05:18:35;;;;;;;;;;;2.00;99.90;;;;;;4994509;28;20000;-75
2021/12/17 05:21:02;;;;;;;;;;;2.10;99.90;;;;;;4994421;28;19906;-75
2021/12/17 05:23:31;;;;;;;;;;;2.00;99.90;;;;;;4994253;28;20289;-75
2021/12/17 05:25:59;;;;;;;;;;;1.80;99.90;;;;;;4994407;28;19910;-75
2021/12/17 05:28:25;;;;;;;;;;;1.70;99.90;;;;;;4994209;28;19906;-75
2021/12/17 05:30:51;;;;;;;;;;;1.80;99.90;;;;;;4976918;28;19910;-75
2021/12/17 05:33:18;;;;;;;;;;;1.60;99.90;;;;;;4977040;28;19938;-75
2021/12/17 05:35:44;;;;;;;;;;;1.50;99.90;;;;;;4976539;28;19906;-75
2021/12/17 05:38:11;;;;;;;;;;;1.70;99.90;;;;;;4994067;28;19905;-75
2021/12/17 05:40:37;;;;;;;;;;;1.80;99.90;;;;;;4960423;28;19905;-75
2021/12/17 05:43:05;;;;;;;;;;;2.10;99.90;;;;;;4976699;28;20345;-75
2021/12/17 05:48:04;;;;;;;;;;;1.90;99.90;;;;;;4976360;28;19906;-75
2021/12/17 05:50:30;;;;;;;;;;;2.10;99.90;;;;;;4993682;28;19916;-75
2021/12/17 05:52:55;;;;;;;;;;;2.10;99.90;;;;;;4976422;28;20004;-75
2021/12/17 05:55:21;;;;;;;;;;;2.10;99.90;;;;;;4993675;28;19996;-75
2021/12/17 05:57:47;;;;;;;;;;;2.00;99.90;;;;;;4993677;28;20396;-75
2021/12/17 06:00:13;;;;;;;;;;;2.10;99.90;;;;;;4976446;28;19916;-75
2021/12/17 06:02:39;;;;;;;;;;;2.20;99.90;;;;;;4993707;28;19906;-75
2021/12/17 06:05:05;;;;;;;;;;;2.20;99.90;;;;;;4976001;28;20027;-75
2021/12/17 06:07:30;;;;;;;;;;;2.10;99.90;;;;;;4960222;28;20362;-75
2021/12/17 06:10:02;;;;;;;;;;;2.00;99.90;;;;;;4975806;28;19972;-75
2021/12/17 06:12:28;;;;;;;;;;;2.20;99.90;;;;;;5004062;23;19947;-80
2021/12/17 06:14:54;;;;;;;;;;;2.30;99.90;;;;;;5026753;28;19909;-80
2021/12/17 06:17:19;;;;;;;;;;;2.20;99.90;;;;;;5026574;28;19912;-79
2021/12/17 06:19:45;;;;;;;;;;;1.90;99.90;;;;;;5043905;28;19909;-80
2021/12/17 06:22:11;;;;;;;;;;;1.80;99.90;;;;;;5042997;28;19964;-81
2021/12/17 06:24:36;;;;;;;;;;;1.70;99.90;;;;;;5044043;28;19967;-80
2021/12/17 06:27:02;;;;;;;;;;;1.80;99.90;;;;;;5044650;28;19940;-80
2021/12/17 06:29:28;;;;;;;;;;;1.70;99.90;;;;;;5025977;28;19909;-80
2021/12/17 06:31:53;;;;;;;;;;;1.70;99.90;;;;;;5026180;28;19905;-80
2021/12/17 06:34:19;;;;;;;;;;;1.90;99.90;;;;;;5033884;28;20319;-79
2021/12/17 06:36:45;;;;;;;;;;;1.90;99.90;;;;;;5044558;28;19909;-80
2021/12/17 06:39:10;;;;;;;;;;;1.90;99.90;;;;;;5044904;28;19905;-79
2021/12/17 06:41:38;;;;;;;;;;;2.00;99.90;;;;;;5043253;28;20299;-80
2021/12/17 06:44:06;;;;;;;;;;;2.00;99.90;;;;;;5043768;28;19992;-79
2021/12/17 06:46:50;;;;;;;;;;;2.20;99.90;;;;;;5023364;28;19905;-79
2021/12/17 06:49:27;;;;;;;;;;;2.20;99.90;;;;;;5043976;28;19912;-80
2021/12/17 06:54:41;;;;;;;;;;;2.30;99.90;;;;;;5042807;28;20264;-78
2021/12/17 06:59:46;;;;;;;;;;;2.50;99.90;;;;;;5041746;28;20276;-78
2021/12/17 07:10:40;;;;;;;;;;;2.30;99.90;;;;;;5042986;28;19909;-77
2021/12/17 07:34:09;;;;;;;;;;;2.00;99.90;;;;;;5048854;28;19916;-79
2021/12/17 07:36:44;;;;;;;;;;;2.10;99.90;;;;;;5046863;28;19905;-79
2021/12/17 07:39:10;;;;;;;;;;;2.10;99.90;;;;;;5047974;28;19912;-80
2021/12/17 07:41:36;;;;;;;;;;;2.10;99.90;;;;;;5046453;28;19905;-79
2021/12/17 07:44:02;;;;;;;;;;;2.10;99.90;;;;;;5046319;28;19905;-79
2021/12/17 07:46:28;;;;;;;;;;;2.20;99.90;;;;;;5045383;28;20288;-79
2021/12/17 07:48:54;;;;;;;;;;;2.40;99.90;;;;;;5046741;28;20055;-79
2021/12/17 07:51:21;;;;;;;;;;;2.20;99.90;;;;;;5045202;28;19913;-79
2021/12/17 07:53:47;;;;;;;;;;;2.20;99.90;;;;;;5045061;28;19939;-79
2021/12/17 07:56:14;;;;;;;;;;;2.10;99.90;;;;;;5043097;28;19905;-80
2021/12/17 07:58:40;;;;;;;;;;;2.10;99.90;;;;;;5038495;28;19905;-79
2021/12/17 08:01:08;;;;;;;;;;;2.10;99.90;;;;;;5044841;28;19931;-80
2021/12/17 08:03:34;;;;;;;;;;;2.20;99.90;;;;;;5027575;28;19916;-78
2021/12/17 08:06:00;;;;;;;;;;;2.20;99.90;;;;;;5046553;28;19905;-79
2021/12/17 08:08:26;;;;;;;;;;;2.30;99.90;;;;;;5029451;28;19905;-78
2021/12/17 08:10:51;;;;;;;;;;;2.30;99.90;;;;;;5043113;28;20446;-79
2021/12/17 08:13:24;;;;;;;;;;;2.30;99.90;;;;;;5026369;28;20012;-80
2021/12/17 08:24:44;;;;;;;;;;;2.50;99.90;;;;;;5044462;28;19963;-78
2021/12/17 08:29:45;;;;;;;;;;;2.70;99.90;;;;;;5047475;28;19920;-79
2021/12/17 08:32:10;;;;;;;;;;;2.80;99.90;;;;;;5047536;28;19940;-79
2021/12/17 08:34:37;;;;;;;;;;;3.10;99.90;;;;;;5049123;28;19905;-79
2021/12/17 08:37:02;;;;;;;;;;;3.20;99.90;;;;;;5046418;28;19909;-79
2021/12/17 08:39:29;;;;;;;;;;;3.20;99.90;;;;;;5028779;28;20425;-80
2021/12/17 08:41:55;;;;;;;;;;;3.40;99.90;;;;;;5046256;28;19916;-79
2021/12/17 08:44:21;;;;;;;;;;;3.50;99.90;;;;;;5030159;28;19905;-78
2021/12/17 08:46:47;;;;;;;;;;;3.60;99.90;;;;;;5046556;28;19905;-79
2021/12/17 08:49:13;;;;;;;;;;;3.50;99.90;;;;;;5029471;28;19968;-78
2021/12/17 08:51:39;;;;;;;;;;;3.40;99.90;;;;;;5046215;28;19905;-79
2021/12/17 08:54:05;;;;;;;;;;;3.50;99.90;;;;;;5048042;28;19905;-79
2021/12/17 08:56:35;;;;;;;;;;;3.70;99.90;;;;;;5044531;28;19927;-80
2021/12/17 08:59:02;;;;;;;;;;;3.90;99.90;;;;;;5044900;28;19951;-79
2021/12/17 09:01:28;;;;;;;;;;;4.00;99.90;;;;;;5045483;28;19905;-79
2021/12/17 09:03:54;;;;;;;;;;;4.00;99.90;;;;;;5047701;28;19909;-80
2021/12/17 09:06:24;;;;;;;;;;;4.20;99.90;;;;;;5029317;28;20315;-79
2021/12/17 09:08:54;;;;;;;;;;;4.30;99.90;;;;;;5048805;28;20003;-78
2021/12/17 09:11:19;;;;;;;;;;;4.40;99.90;;;;;;5047323;28;19928;-79
2021/12/17 09:13:45;;;;;;;;;;;4.40;99.90;;;;;;5030053;28;19970;-79
2021/12/17 09:16:11;;;;;;;;;;;4.40;99.90;;;;;;5031800;28;19912;-79
2021/12/17 09:18:36;;;;;;;;;;;4.40;99.90;;;;;;5045258;28;20319;-78
2021/12/17 09:21:02;;;;;;;;;;;4.50;99.90;;;;;;5045584;28;19987;-79
2021/12/17 09:23:28;;;;;;;;;;;4.50;99.90;;;;;;5047210;28;19971;-78
2021/12/17 09:25:53;;;;;;;;;;;4.50;99.90;;;;;;5044742;28;19983;-80
2021/12/17 09:28:19;;;;;;;;;;;5.00;99.90;;;;;;5029517;28;20003;-80
2021/12/17 09:30:45;;;;;;;;;;;5.80;99.90;;;;;;5042839;28;20785;-79
2021/12/17 09:33:10;;;;;;;;;;;6.40;99.90;;;;;;5042242;28;20448;-78
2021/12/17 09:35:36;;;;;;;;;;;6.90;99.90;;;;;;5023953;28;19905;-81
2021/12/17 09:38:02;;;;;;;;;;;7.60;99.90;;;;;;5046859;28;19905;-80
2021/12/17 09:40:27;;;;;;;;;;;8.50;99.90;;;;;;5041537;28;19905;-79
2021/12/17 09:42:53;;;;;;;;;;;8.90;98.90;;;;;;5041048;28;20315;-80
2021/12/17 09:45:19;;;;;;;;;;;9.20;98.00;;;;;;5041778;28;20281;-79
2021/12/17 09:47:45;;;;;;;;;;;10.00;94.80;;;;;;5045319;28;20281;-79
2021/12/17 09:50:12;;;;;;;;;;;10.20;92.00;;;;;;5044842;28;20364;-80
2021/12/17 09:52:38;;;;;;;;;;;10.60;91.90;;;;;;5047041;28;19905;-80
2021/12/17 09:55:04;;;;;;;;;;;11.30;89.10;;;;;;5046650;28;19931;-80
2021/12/17 09:57:35;;;;;;;;;;;11.40;85.20;;;;;;5044669;28;20342;-80
2021/12/17 10:00:13;;;;;;;;;;;11.20;84.90;;;;;;5030094;28;19905;-79
2021/12/17 10:02:40;;;;;;;;;;;11.40;84.10;;;;;;5045743;28;20384;-79
2021/12/17 10:05:06;;;;;;;;;;;11.70;82.00;;;;;;5042631;28;20351;-81
2021/12/17 10:07:33;;;;;;;;;;;11.80;82.00;;;;;;5041913;28;19905;-81
2021/12/17 10:10:04;;;;;;;;;;;12.00;81.30;;;;;;5043025;28;19924;-82
2021/12/17 10:12:34;;;;;;;;;;;12.20;79.90;;;;;;5041611;28;20000;-79
2021/12/17 10:15:02;;;;;;;;;;;12.20;78.20;;;;;;5043167;28;20281;-79
2021/12/17 10:17:28;;;;;;;;;;;12.50;77.90;;;;;;5043031;28;19928;-81
2021/12/17 10:19:53;;;;;;;;;;;12.40;76.20;;;;;;5041255;28;19905;-79
2021/12/17 10:22:21;;;;;;;;;;;12.60;75.60;;;;;;5026240;28;19893;-80
2021/12/17 10:24:55;;;;;;;;;;;12.90;76.00;;;;;;5042499;28;19897;-80
2021/12/17 10:27:22;;;;;;;;;;;13.30;74.20;;;;;;5042021;28;19912;-79
2021/12/17 10:29:47;;;;;;;;;;;13.70;72.30;;;;;;5024203;28;19976;-80
2021/12/17 10:32:20;;;;;;;;;;;14.10;69.40;;;;;;5028275;28;20180;-80
2021/12/17 10:35:00;;;;;;;;;;;14.10;67.00;;;;;;5027738;28;19911;-78
2021/12/17 10:37:32;;;;;;;;;;;14.40;67.50;;;;;;5026948;28;19913;-79
2021/12/17 10:39:58;;;;;;;;;;;14.20;66.60;;;;;;5043740;28;20000;-79
2021/12/17 10:42:37;;;;;;;;;;;14.30;67.30;;;;;;5027218;28;20371;-80
2021/12/17 10:45:10;;;;;;;;;;;14.30;67.00;;;;;;5046320;28;19910;-80
2021/12/17 10:47:37;;;;;;;;;;;14.30;67.00;;;;;;5046019;28;19920;-79
2021/12/17 10:50:03;;;;;;;;;;;14.60;65.50;;;;;;5029059;28;19919;-80
2021/12/17 10:52:38;;;;;;;;;;;14.80;63.70;;;;;;5045920;28;19928;-79
2021/12/17 10:55:13;;;;;;;;;;;14.80;64.40;;;;;;5030605;28;19905;-79
2021/12/17 10:57:38;;;;;;;;;;;15.10;64.20;;;;;;5051496;28;19972;-78
2021/12/17 11:00:06;;;;;;;;;;;14.70;65.70;;;;;;5050917;28;19928;-78
2021/12/17 11:02:37;;;;;;;;;;;14.40;67.20;;;;;;5067257;28;20520;-78
2021/12/17 11:05:10;;;;;;;;;;;14.10;68.10;;;;;;5033914;28;19905;-78
2021/12/17 11:07:39;;;;;;;;;;;14.00;67.60;;;;;;5049237;28;19980;-78
2021/12/17 11:10:05;;;;;;;;;;;14.40;68.50;;;;;;5050223;28;19952;-78
2021/12/17 11:12:32;;;;;;;;;;;14.80;65.90;;;;;;5050725;28;19916;-77
2021/12/17 11:15:04;;;;;;;;;;;15.10;65.10;;;;;;5049401;28;19905;-78
2021/12/17 11:17:30;;;;;;;;;;;14.90;64.90;;;;;;5031761;28;19912;-78
2021/12/17 11:19:57;;;;;;;;;;;14.40;66.30;;;;;;5049018;28;19909;-78
2021/12/17 11:22:24;;;;;;;;;;;14.40;66.10;;;;;;5032659;28;19947;-79
2021/12/17 11:24:50;;;;;;;;;;;14.60;65.90;;;;;;5032371;28;19905;-78
2021/12/17 11:27:15;;;;;;;;;;;14.70;65.80;;;;;;5032699;28;19931;-78
2021/12/17 11:29:41;;;;;;;;;;;14.90;65.90;;;;;;5032642;28;20174;-78
2021/12/17 11:32:07;;;;;;;;;;;15.50;64.20;;;;;;5046744;28;19928;-79
2021/12/17 11:34:33;;;;;;;;;;;15.60;62.70;;;;;;5064168;28;19965;-79
2021/12/17 11:37:00;;;;;;;;;;;15.40;63.60;;;;;;5032697;28;19905;-78
2021/12/17 11:39:31;;;;;;;;;;;15.80;61.90;;;;;;5047319;28;20368;-78
2021/12/17 11:42:24;;;;;;;;;;;14.90;63.60;;;;;;5048426;28;20004;-78
2021/12/17 11:45:22;;;;;;;;;;;14.50;65.40;;;;;;5031573;28;19943;-77
2021/12/17 11:47:37;;;;;;;;;;;13.70;67.30;;;;;;5046573;28;19962;-79
2021/12/17 11:50:04;;;;;;;;;;;13.50;68.50;;;;;;5048807;28;19972;-79
2021/12/17 11:52:32;;;;;;;;;;;13.10;69.80;;;;;;5047250;28;19943;-77
2021/12/17 11:55:17;;;;;;;;;;;12.10;72.70;;;;;;5049044;28;19912;-78
2021/12/17 11:57:43;;;;;;;;;;;11.40;76.40;;;;;;5029992;28;19909;-78
2021/12/17 12:00:13;;;;;;;;;;;10.60;79.50;;;;;;5047049;28;19905;-78
2021/12/17 12:02:46;;;;;;;;;;;9.60;82.00;;;;;;5049173;28;19907;-78
2021/12/17 12:05:31;;;;;;;;;;;9.00;86.10;;;;;;5047775;28;19905;-77
2021/12/17 12:08:17;;;;;;;;;;;8.60;88.60;;;;;;5049880;28;19909;-78
2021/12/17 12:10:44;;;;;;;;;;;8.30;90.40;;;;;;5049003;28;20004;-78
2021/12/17 12:13:09;;;;;;;;;;;8.30;90.80;;;;;;5048487;28;20360;-79
2021/12/17 12:15:37;;;;;;;;;;;8.20;90.80;;;;;;5049848;28;19912;-79
2021/12/17 12:18:17;;;;;;;;;;;8.00;92.30;;;;;;5049506;28;19913;-78
2021/12/17 12:20:52;;;;;;;;;;;8.10;92.70;;;;;;5048830;28;19905;-79
2021/12/17 12:23:24;;;;;;;;;;;8.30;92.70;;;;;;5065704;28;19905;-83
2021/12/17 12:26:07;;;;;;;;;;;8.40;92.20;;;;;;5032030;28;19915;-78
2021/12/17 12:28:46;;;;;;;;;;;8.40;92.60;;;;;;5033339;28;19935;-78
2021/12/17 12:31:31;;;;;;;;;;;8.60;92.50;;;;;;5047896;28;19932;-78
2021/12/17 12:34:00;;;;;;;;;;;8.60;92.70;;;;;;5047874;28;19916;-78
2021/12/17 12:36:52;;;;;;;;;;;8.20;94.00;;;;;;5031202;28;19909;-79
2021/12/17 12:39:21;;;;;;;;;;;7.90;95.30;;;;;;5026379;28;20333;-78
2021/12/17 12:41:47;;;;;;;;;;;7.70;96.70;;;;;;5047884;28;20410;-78
2021/12/17 12:44:12;;;;;;;;;;;7.50;99.90;;;;;;5050190;28;19905;-79
2021/12/17 12:46:49;;;;;;;;;;;7.50;99.90;;;;;;5046615;28;19916;-78
2021/12/17 12:49:33;;;;;;;;;;;7.50;99.90;;;;;;5071177;22;19921;-90
2021/12/17 12:52:29;;;;;;;;;;;7.60;99.90;;;;;;5039011;28;20451;-89
2021/12/17 12:55:04;;;;;;;;;;;7.80;99.90;;;;;;5039185;28;20348;-90
2021/12/17 12:57:34;;;;;;;;;;;7.80;99.90;;;;;;5038259;28;19983;-90
2021/12/17 13:00:10;;;;;;;;;;;7.60;99.90;;;;;;5037817;28;19904;-90
2021/12/17 13:02:36;;;;;;;;;;;7.60;99.90;;;;;;5035567;28;19909;-90
2021/12/17 13:05:06;;;;;;;;;;;7.50;99.90;;;;;;5044158;28;19940;-89
2021/12/17 13:07:44;;;;;;;;;;;7.50;99.90;;;;;;5041901;28;19904;-87
2021/12/17 13:10:15;;;;;;;;;;;7.20;99.90;;;;;;5027437;28;20386;-90
2021/12/17 13:12:41;;;;;;;;;;;7.00;99.90;;;;;;5019500;28;19905;-91
2021/12/17 13:15:20;;;;;;;;;;;7.00;99.90;;;;;;5020438;28;19905;-90
2021/12/17 13:20:27;;;;;;;;;;;7.10;99.90;;;;;;5021493;28;19908;-90
2021/12/17 13:20:55;;;;;;;;;;;7.30;99.90;;;;;;5054391;28;19905;-89
2021/12/17 13:23:22;;;;;;;;;;;7.20;99.90;;;;;;5037189;28;19924;-89
2021/12/17 13:26:03;;;;;;;;;;;7.20;99.90;;;;;;5023284;28;19905;-90
2021/12/17 13:28:44;;;;;;;;;;;7.60;99.90;;;;;;5022926;28;19985;-90
2021/12/17 13:31:10;;;;;;;;;;;7.90;99.90;;;;;;5023969;28;19909;-90
2021/12/17 13:33:38;;;;;;;;;;;7.90;99.90;;;;;;5022030;28;19912;-91
2021/12/17 13:36:12;;;;;;;;;;;7.80;99.90;;;;;;5021816;28;19905;-91
2021/12/17 13:38:40;;;;;;;;;;;7.50;99.90;;;;;;5020626;28;20346;-92
2021/12/17 13:41:21;;;;;;;;;;;7.30;99.90;;;;;;5021009;28;19909;-92
2021/12/17 13:43:55;;;;;;;;;;;7.00;99.90;;;;;;5022364;28;19905;-92
2021/12/17 13:46:26;;;;;;;;;;;6.90;99.90;;;;;;5020341;28;20370;-91
2021/12/17 13:48:55;;;;;;;;;;;6.80;99.90;;;;;;5019264;28;19909;-92
2021/12/17 13:51:21;;;;;;;;;;;6.80;99.90;;;;;;5024858;28;19901;-90
2021/12/17 13:53:49;;;;;;;;;;;6.80;99.90;;;;;;5040960;28;19909;-89
2021/12/17 13:56:38;;;;;;;;;;;6.60;99.90;;;;;;5025564;28;19971;-91
2021/12/17 13:59:04;;;;;;;;;;;6.70;99.90;;;;;;5035685;28;19905;-91
2021/12/17 14:01:32;;;;;;;;;;;6.70;99.90;;;;;;5025170;28;19913;-89
2021/12/17 14:04:01;;;;;;;;;;;6.80;99.90;;;;;;5019328;28;19960;-90
2021/12/17 14:06:45;;;;;;;;;;;6.90;99.90;;;;;;5021144;28;19924;-91
2021/12/17 14:09:16;;;;;;;;;;;6.90;99.90;;;;;;5018947;28;19951;-91
2021/12/17 14:11:46;;;;;;;;;;;6.90;99.90;;;;;;5020694;28;19917;-90
2021/12/17 14:14:24;;;;;;;;;;;6.80;99.90;;;;;;5019569;28;19943;-91
2021/12/17 14:17:15;;;;;;;;;;;6.70;99.90;;;;;;5018934;28;19909;-91
2021/12/17 14:19:53;;;;;;;;;;;6.50;99.90;;;;;;5010083;28;19912;-90
2021/12/17 14:22:27;;;;;;;;;;;6.50;99.90;;;;;;5019388;28;19905;-91
2021/12/17 14:24:58;;;;;;;;;;;6.40;99.90;;;;;;5018651;28;19905;-91
2021/12/17 14:27:43;;;;;;;;;;;6.30;99.90;;;;;;5034296;28;20289;-91
2021/12/17 14:30:17;;;;;;;;;;;6.20;99.90;;;;;;5018428;28;20417;-91
2021/12/17 14:32:43;;;;;;;;;;;6.20;99.90;;;;;;5017549;28;19912;-91
2021/12/17 14:35:35;;;;;;;;;;;6.10;99.90;;;;;;5019204;28;19905;-91
2021/12/17 14:38:02;;;;;;;;;;;6.20;99.90;;;;;;5019325;28;20000;-91
2021/12/17 14:40:46;;;;;;;;;;;6.40;99.90;;;;;;5018157;28;20350;-90
2021/12/17 14:43:17;;;;;;;;;;;6.30;99.90;;;;;;5017783;28;19911;-91
2021/12/17 14:46:08;;;;;;;;;;;;;;;;;;;;;
2021/12/17 14:48:41;;;;;;;;;;;6.40;99.90;;;;;;5035343;28;20382;-91
2021/12/17 14:57:22;;;;;;;;;;;6.10;99.90;;;;;;5047226;28;19927;-90
2021/12/17 15:03:41;;;;;;;;;;;6.00;99.90;;;;;;5035163;28;20318;-93
2021/12/17 15:05:48;;;;;;;;;;;5.90;99.90;;;;;;5022336;28;19909;-92
2021/12/17 15:08:16;;;;;;;;;;;6.10;99.90;;;;;;5018160;28;19947;-90
2021/12/17 15:10:47;;;;;;;;;;;6.00;99.90;;;;;;5018001;28;20012;-90
2021/12/17 15:13:20;;;;;;;;;;;6.10;99.90;;;;;;5021327;28;19909;-90
2021/12/17 15:16:03;;;;;;;;;;;6.30;99.90;;;;;;5035788;28;19905;-91
2021/12/17 15:18:32;;;;;;;;;;;6.20;99.90;;;;;;5018901;28;20040;-92
2021/12/17 15:21:10;;;;;;;;;;;6.10;99.90;;;;;;5033809;28;20286;-92
2021/12/17 15:23:39;;;;;;;;;;;6.00;99.90;;;;;;5017577;28;20281;-91
2021/12/17 15:26:11;;;;;;;;;;;6.10;99.90;;;;;;5017873;28;19905;-92
2021/12/17 15:28:45;;;;;;;;;;;6.20;99.90;;;;;;5017570;28;19901;-92
2021/12/17 15:31:14;;;;;;;;;;;6.20;99.90;;;;;;5019456;28;19909;-91
2021/12/17 15:33:45;;;;;;;;;;;6.10;99.90;;;;;;5018796;28;19932;-91
2021/12/17 15:36:13;;;;;;;;;;;6.00;99.90;;;;;;5018546;28;20012;-91
2021/12/17 15:38:56;;;;;;;;;;;6.10;99.90;;;;;;5017225;28;19905;-90
2021/12/17 15:41:22;;;;;;;;;;;6.30;99.90;;;;;;5018020;28;19905;-91
2021/12/17 15:44:08;;;;;;;;;;;6.40;99.90;;;;;;5020719;28;19955;-90
2021/12/17 15:46:40;;;;;;;;;;;6.40;99.90;;;;;;5031674;28;19955;-91
2021/12/17 15:49:06;;;;;;;;;;;6.40;99.90;;;;;;5020082;28;19916;-90
2021/12/17 15:51:42;;;;;;;;;;;;;;;;;;;;;
2021/12/17 15:54:10;;;;;;;;;;;6.20;99.90;;;;;;5037987;28;19905;-91
2021/12/17 15:56:36;;;;;;;;;;;6.00;99.90;;;;;;5019504;28;19905;-92
2021/12/17 15:59:05;;;;;;;;;;;5.80;99.90;;;;;;5026066;28;19927;-90
2021/12/17 16:01:33;;;;;;;;;;;5.80;99.90;;;;;;5038668;28;19912;-93
2021/12/17 16:03:59;;;;;;;;;;;6.00;99.90;;;;;;5027775;28;20358;-92
2021/12/17 16:06:25;;;;;;;;;;;6.00;99.90;;;;;;5020595;28;19955;-90
2021/12/17 16:08:55;;;;;;;;;;;5.90;99.90;;;;;;5020236;28;20000;-90
2021/12/17 16:16:48;;;;;;;;;;;6.00;99.90;;;;;;5022369;28;19916;-92
2021/12/17 16:23:03;;;;;;;;;;;5.70;99.90;;;;;;5036946;28;19912;-92
2021/12/17 16:25:34;;;;;;;;;;;5.70;99.90;;;;;;5021244;28;19964;-90
2021/12/17 16:28:00;;;;;;;;;;;5.70;99.90;;;;;;5020005;28;19905;-91
2021/12/17 16:30:25;;;;;;;;;;;5.70;99.90;;;;;;5020179;28;19928;-91
2021/12/17 16:32:51;;;;;;;;;;;5.80;99.90;;;;;;5021412;28;20330;-91
2021/12/17 16:35:20;;;;;;;;;;;5.90;99.90;;;;;;5021009;28;19911;-91
2021/12/17 16:37:51;;;;;;;;;;;5.90;99.90;;;;;;5019984;28;19909;-91
2021/12/17 16:40:20;;;;;;;;;;;5.90;99.90;;;;;;5019657;28;20406;-92
2021/12/17 16:42:46;;;;;;;;;;;5.90;99.90;;;;;;5020696;28;19920;-90
2021/12/17 16:45:30;;;;;;;;;;;5.80;99.90;;;;;;5020672;28;19905;-90
2021/12/17 16:47:58;;;;;;;;;;;5.90;99.90;;;;;;5020026;28;19954;-92
2021/12/17 16:50:26;;;;;;;;;;;5.90;99.90;;;;;;5020041;28;19913;-90
2021/12/17 16:52:53;;;;;;;;;;;6.00;99.90;;;;;;5022208;28;19919;-90
2021/12/17 16:55:20;;;;;;;;;;;6.00;99.90;;;;;;5026058;28;19905;-91
2021/12/17 16:57:46;;;;;;;;;;;6.10;99.90;;;;;;5020654;28;19916;-90
2021/12/17 17:00:12;;;;;;;;;;;6.10;99.90;;;;;;5021660;28;19936;-90
2021/12/17 17:05:38;;;;;;;;;;;6.20;99.90;;;;;;5038316;28;19953;-91
2021/12/17 17:08:04;;;;;;;;;;;6.20;99.90;;;;;;5019998;28;20382;-91
2021/12/17 17:10:33;;;;;;;;;;;5.90;99.90;;;;;;5039116;28;19923;-90
2021/12/17 17:13:04;;;;;;;;;;;5.80;99.90;;;;;;5059889;28;19916;-87
2021/12/17 17:15:34;;;;;;;;;;;5.60;99.90;;;;;;5043038;28;19943;-88
2021/12/17 17:18:01;;;;;;;;;;;5.40;99.90;;;;;;5042244;28;19913;-90
2021/12/17 17:20:26;;;;;;;;;;;5.30;99.90;;;;;;5042209;28;19896;-88
2021/12/17 17:22:52;;;;;;;;;;;5.20;99.90;;;;;;5041981;28;19897;-89
2021/12/17 17:25:18;;;;;;;;;;;5.40;99.90;;;;;;5038317;28;19916;-92
2021/12/17 17:27:46;;;;;;;;;;;5.50;99.90;;;;;;5017999;28;19959;-91
2021/12/17 17:30:12;;;;;;;;;;;5.40;99.90;;;;;;5018566;28;19915;-92
2021/12/17 17:32:40;;;;;;;;;;;5.50;99.90;;;;;;5018362;28;19999;-92
2021/12/17 17:35:05;;;;;;;;;;;5.60;99.90;;;;;;5032957;28;19944;-87
2021/12/17 17:37:31;;;;;;;;;;;5.60;99.90;;;;;;5041516;28;19920;-88
2021/12/17 17:39:58;;;;;;;;;;;5.60;99.90;;;;;;5041697;28;19908;-89
2021/12/17 17:42:23;;;;;;;;;;;5.40;99.90;;;;;;5026032;28;20007;-92
2021/12/17 17:44:49;;;;;;;;;;;5.40;99.90;;;;;;5017744;28;20017;-91
2021/12/17 17:47:18;;;;;;;;;;;5.20;99.90;;;;;;5016876;28;19911;-91